CPX776 Details

Departure: Ben Gurion International Airport (LLBG)
Arrival: Liège Airport (EBLG)
Route: PURLA2G PURLA L53 KAROL L995 RDS UL609 MES UG18 FSK L608 LONTA L608 DOLEV ERKIR UQ863 GUPIN RIDSU L608 LIRSU


Current Weather Information
LLBG 260020Z 14005KT 9999 FEW035 11/07 Q1011 NOSIG
EBLG 260020Z 34004KT 310V010 9999 SCT021 BKN032 05/03 Q1031 NOSIG